• Join FlightAware (Why Join?)
  • Login
  • US Flag 
11:31AM EDT


 

Airport Tracker/Info


-or-


 

Live Flight TrackerFlight Track Log ✈ ASH3751 ✈ 24-Jun-2013 ✈ KORD - KALB

Flight Track Log - Related Links

Times and Time Zones

All times are in EDT time to prevent confusion due to time zone crossing. See the ASH3751 flight status page for this flight to view local times or setup timezone preferences in your user account.

Time Position Orientation Groundspeed Altitude Reporting Facility
EDT Latitude Longitude Course Direction KTS MPH feet Rate Location/Type
12:20AM 42.0333 -87.9500 20° North 192 221 3,500  Level Chicago TRACON
12:21AM 42.0833 -88.0000 323° Northwest 251 289 5,300 2,040 Climbing Chicago TRACON
12:22AM 42.1328 -88.0325 334° Northwest 268 308 7,100 2,760 Climbing Chicago Center
12:23AM 42.2097 -88.0336 359° North 277 319 10,200 2,700 Climbing Chicago Center
12:24AM 42.2919 -88.0319 North 295 339 12,600 2,280 Climbing Chicago Center
12:25AM 42.3847 -88.0233 North 303 349 14,900 1,800 Climbing Chicago Center
12:26AM 42.6260 -87.6954 20° North  Level FlightAware Approximate
12:26AM 42.4747 -88.0175 North 322 371 16,300  Level Chicago Center
12:27AM 42.5650 -87.9764 19° North 377 434 18,200 1,800 Climbing Chicago Center
12:28AM 42.5961 -87.8333 73° East 401 461 20,000 1,800 Climbing Chicago Center
12:29AM 42.6192 -87.6850 78° East 403 464 21,900 1,440 Climbing Chicago Center
12:30AM 42.6419 -87.5311 79° East 415 478 23,000 1,080 Climbing Chicago Center
12:31AM 42.6658 -87.3744 78° East 434 499 24,200 1,260 Climbing Chicago Center
12:32AM 42.6894 -87.2100 79° East 444 511 25,600 1,260 Climbing Chicago Center
12:33AM 42.7192 -87.0103 78° East 450 518 26,800 960 Climbing Chicago Center
12:34AM 42.7447 -86.8386 78° East 461 531 27,600 1,020 Climbing Chicago Center
12:35AM 42.7697 -86.6644 79° East 470 541 28,900 1,080 Climbing Chicago Center
12:36AM 42.7939 -86.4906 79° East 469 540 29,800 1,020 Climbing Chicago Center
12:37AM 42.8175 -86.3150 80° East 474 545 31,000 1,080 Climbing Chicago Center
12:38AM 42.8408 -86.1414 80° East 473 544 32,100 1,080 Climbing Chicago Center
12:39AM 42.8644 -85.9672 79° East 477 549 33,200 1,140 Climbing Chicago Center
12:40AM 42.8881 -85.7967 79° East 472 543 34,500 1,080 Climbing Chicago Center
12:41AM 42.9108 -85.6244 80° East 468 539 35,500 1,140 Climbing Chicago Center
12:42AM 42.9383 -85.4228 79° East 459 528 36,900 720 Climbing Chicago Center
12:43AM 42.9600 -85.2539 80° East 454 522 37,000  Climbing Chicago Center
12:44AM 42.9828 -85.0778 80° East 469 540 37,000  Level Chicago Center
12:45AM 43.0058 -84.8950 80° East 485 558 37,000  Level Chicago Center
12:46AM 43.0283 -84.7103 80° East 492 566 37,000  Level Chicago Center
12:47AM 43.0519 -84.5247 80° East 496 571 37,000  Level Chicago Center
12:48AM 43.0739 -84.3425 81° East 488 562 37,000  Level Chicago Center
12:49AM 43.0961 -84.1628 80° East 483 556 37,000  Level Chicago Center
12:50AM 43.1175 -83.9839 81° East 480 552 37,000  Level Chicago Center
12:51AM 43.1372 -83.8064 81° East 473 544 37,000  Level Chicago Center
12:52AM 43.1500 -83.6333 84° East 470 541 37,000  Level Toronto Center
12:53AM 43.1667 -83.4667 82° East 470 541 37,000  Level Toronto Center
12:54AM 43.1833 -83.3000 82° East 470 541 37,000  Level Toronto Center
12:55AM 43.2000 -83.1167 83° East 480 552 37,000  Level Toronto Center
12:56AM 43.2167 -82.9333 83° East 480 552 37,000  Level Toronto Center
12:57AM 43.2333 -82.7500 83° East 480 552 37,000  Level Toronto Center
12:58AM 43.2333 -82.5667 90° East 480 552 37,000  Level Toronto Center
12:59AM 43.2000 -82.3833 104° East 470 541 37,000  Level Toronto Center
01:00AM 43.1833 -82.2167 98° East 470 541 37,000  Level Toronto Center
01:01AM 43.1500 -82.0333 104° East 470 541 37,000  Level Toronto Center
01:02AM 43.1333 -81.8667 98° East 470 541 37,000  Level Toronto Center
01:03AM 43.1000 -81.6833 104° East 460 529 37,000  Level Toronto Center
01:04AM 43.0833 -81.5000 97° East 470 541 37,000  Level Toronto Center
01:05AM 43.0500 -81.3500 107° East 470 541 37,000  Level Toronto Center
01:06AM 43.0167 -81.1667 104° East 470 541 37,000  Level Toronto Center
01:07AM 43.0167 -80.9833 90° East 470 541 37,000  Level Toronto Center
01:09AM 43.0112 -80.7809 92° East  Level FlightAware Approximate
01:09AM 43.0167 -80.6167 92° East 480 552 37,000  Level Toronto Center
01:10AM 43.0000 -80.4333 97° East 470 541 37,000  Level Toronto Center
01:11AM 43.0000 -80.2667 90° East 470 541 37,000  Level Toronto Center
01:12AM 42.9833 -80.0833 97° East 470 541 37,000  Level Toronto Center
01:13AM 42.9833 -79.9000 90° East 470 541 37,000  Level Toronto Center
01:14AM 42.9667 -79.7167 97° East 470 541 37,000  Level Toronto Center
01:15AM 42.9667 -79.5500 90° East 470 541 37,000  Level Toronto Center
01:16AM 42.9500 -79.3667 97° East 470 541 37,000  Level Toronto Center
01:17AM 42.9500 -79.1833 90° East 480 552 37,000  Level Toronto Center
01:18AM 42.9500 -79.0167 90° East 470 541 37,000  Level Toronto Center
01:19AM 42.9333 -78.8167 96° East 470 541 37,000  Level Toronto Center
01:20AM 42.9331 -78.7286 90° East 476 548 37,000  Level Cleveland Center
01:21AM 42.9281 -78.5531 92° East 476 548 37,000  Level Cleveland Center
01:22AM 42.9247 -78.3717 91° East 476 548 37,000  Level Cleveland Center
01:23AM 42.9211 -78.1958 92° East 471 542 37,000  Level Cleveland Center
01:24AM 42.9175 -78.0175 92° East 471 542 37,000  Level Cleveland Center
01:25AM 42.9133 -77.8389 92° East 471 542 37,000  Level Cleveland Center
01:26AM 42.9111 -77.6606 91° East 476 548 37,000  Level Cleveland Center
01:27AM 42.9064 -77.4794 92° East 476 548 37,000 -1,200 Level Cleveland Center
01:29AM 42.8942 -77.1144 92° East 479 551 33,400 -1,800 Descending Boston Center
01:30AM 42.8889 -76.9353 92° East 479 551 31,400 -2,100 Descending Boston Center
01:31AM 42.8836 -76.7478 92° East 479 551 29,300 -1,200 Descending Boston Center
01:32AM 42.8797 -76.5775 92° East 472 543 29,000 -180 Descending Boston Center
01:33AM 42.8711 -76.4039 94° East 460 529 29,000  Level Boston Center
01:34AM 42.8603 -76.2361 95° East 455 524 29,000  Level Boston Center
01:35AM 42.8411 -76.0592 98° East 455 524 29,000  Level Boston Center
01:36AM 42.8214 -75.8883 99° East 455 524 29,000  Level Boston Center
01:37AM 42.8014 -75.7117 99° East 460 529 29,000 -960 Level Boston Center
01:38AM 42.7792 -75.5350 100° East 466 536 27,100 -2,520 Descending Boston Center
01:39AM 42.7606 -75.3728 99° East 461 531 24,000 -3,000 Descending Boston Center
01:40AM 42.7397 -75.2106 100° East 441 507 21,100 -3,000 Descending Boston Center
01:41AM 42.7206 -75.0572 100° East 423 487 18,100 -3,000 Descending Boston Center
01:42AM 42.7008 -74.9122 100° East 408 470 15,100 -3,300 Descending Boston Center
01:43AM 42.6867 -74.7958 99° East 381 438 12,600 -2,100 Descending Boston Center
01:44AM 42.6667 -74.6397 100° East 358 412 11,000 -780 Descending Boston Center
01:45AM 42.6503 -74.5122 100° East 315 362 10,800 -900 Descending Boston Center
01:46AM 42.6375 -74.4100 100° East 300 345 9,300 -1,740 Descending Boston Center
01:47AM 42.6189 -74.2825 101° East 292 336 7,200 -1,860 Descending Boston Center
01:48AM 42.6078 -74.1919 99° East 299 344 5,600 -1,680 Descending Boston Center
01:49AM 42.5908 -74.0700 101° East 299 344 4,100 -840 Descending Boston Center
01:50AM 42.5797 -73.9797 99° East 287 330 4,000 -600 Descending Boston Center
01:51AM 42.5872 -73.8728 85° East 260 299 3,000 -900 Descending Boston Center
01:52AM 42.6194 -73.8086 56° Northeast 222 255 2,300 -600 Descending Boston Center
01:53AM 42.6714 -73.8069 North 161 185 1,800 -300 Descending Boston Center
01:54AM 42.7092 -73.7822 26° Northeast 161 185 1,800  Level Boston Center